createdAt,value
2023-02-11T00:02:06.193Z,16.58
2023-02-11T00:04:32.860Z,16.77
2023-02-11T00:06:59.749Z,17.05
2023-02-11T00:09:26.449Z,17.05
2023-02-11T00:11:53.342Z,17.67
2023-02-11T00:14:20.280Z,16.23
2023-02-11T00:16:47.382Z,16.90
2023-02-11T00:19:14.043Z,16.17
2023-02-11T00:21:40.766Z,16.05
2023-02-11T00:24:07.562Z,18.20
2023-02-11T00:26:35.829Z,16.80
2023-02-11T00:29:03.142Z,17.50
2023-02-11T00:31:29.998Z,18.05
2023-02-11T00:33:57.209Z,17.77
2023-02-11T00:36:27.270Z,16.85
2023-02-11T00:38:54.966Z,15.20
2023-02-11T00:41:22.329Z,16.85
2023-02-11T00:43:49.983Z,17.75
2023-02-11T00:46:17.414Z,15.90
2023-02-11T00:48:44.327Z,14.25
2023-02-11T00:51:12.141Z,18.20
2023-02-11T00:53:39.372Z,18.13
2023-02-11T00:56:08.822Z,17.90
2023-02-11T00:58:36.882Z,18.60
2023-02-11T01:01:04.189Z,17.38
2023-02-11T01:03:30.894Z,18.08
2023-02-11T01:05:58.055Z,16.75
2023-02-11T01:08:26.866Z,16.13
2023-02-11T01:11:03.726Z,17.20
2023-02-11T01:13:33.819Z,17.17
2023-02-11T01:16:00.507Z,17.08
2023-02-11T01:18:27.442Z,16.63
2023-02-11T01:20:54.772Z,15.98
2023-02-11T01:23:22.714Z,17.73
2023-02-11T01:25:50.197Z,16.23
2023-02-11T01:28:24.498Z,17.77
2023-02-11T01:30:52.027Z,16.50
2023-02-11T01:33:18.816Z,16.33
2023-02-11T01:35:45.902Z,19.08
2023-02-11T01:38:23.546Z,17.35
2023-02-11T01:40:59.915Z,16.80
2023-02-11T01:43:30.633Z,16.70
2023-02-11T01:46:15.084Z,17.38
2023-02-11T01:51:18.527Z,15.45
2023-02-11T01:54:06.349Z,17.10
2023-02-11T01:56:53.455Z,16.42
2023-02-11T01:59:24.786Z,17.00
2023-02-11T02:01:58.955Z,15.52
2023-02-11T02:04:32.304Z,16.05
2023-02-11T02:07:35.469Z,16.73
2023-02-11T02:10:08.201Z,17.02
2023-02-11T02:12:35.404Z,18.15
2023-02-11T02:15:26.580Z,18.98
2023-02-11T02:18:25.491Z,15.48
2023-02-11T02:21:21.719Z,16.75
2023-02-11T02:24:26.767Z,17.80
2023-02-11T02:27:17.715Z,18.95
2023-02-11T02:30:05.312Z,17.13
2023-02-11T02:32:53.776Z,16.42
2023-02-11T02:35:34.637Z,18.27
2023-02-11T02:38:21.340Z,17.08
2023-02-11T02:41:01.486Z,17.88
2023-02-11T02:43:31.040Z,16.90
2023-02-11T02:46:13.772Z,18.27
2023-02-11T02:48:40.376Z,17.33
2023-02-11T02:51:39.597Z,19.42
2023-02-11T02:54:36.050Z,16.98
2023-02-11T02:57:33.803Z,17.92
2023-02-11T03:00:18.821Z,17.33
2023-02-11T03:03:03.160Z,18.58
2023-02-11T03:08:18.146Z,17.83
2023-02-11T03:10:49.489Z,16.52
2023-02-11T03:13:19.509Z,18.30
2023-02-11T03:15:51.269Z,17.15
2023-02-11T03:18:21.326Z,19.00
2023-02-11T03:20:52.289Z,17.55
2023-02-11T03:23:52.834Z,18.65
2023-02-11T03:26:28.861Z,18.40
2023-02-11T03:29:05.323Z,18.80
2023-02-11T03:31:42.606Z,19.08
2023-02-11T03:34:19.244Z,18.17
2023-02-11T03:37:07.335Z,18.80
2023-02-11T03:39:54.899Z,17.20
2023-02-11T03:42:26.581Z,18.45
2023-02-11T03:45:03.901Z,19.45
2023-02-11T03:47:33.894Z,19.13
2023-02-11T03:50:04.577Z,18.25
2023-02-11T03:52:32.821Z,21.05
2023-02-11T03:55:02.832Z,19.02
2023-02-11T03:57:30.274Z,19.10
2023-02-11T03:59:59.301Z,18.98
2023-02-11T04:02:32.004Z,18.63
2023-02-11T04:04:58.862Z,19.00
2023-02-11T04:07:26.043Z,16.95
2023-02-11T04:09:56.763Z,19.30
2023-02-11T04:12:25.393Z,18.30
2023-02-11T04:14:52.048Z,20.38
2023-02-11T04:17:19.056Z,18.15
2023-02-11T04:19:45.994Z,19.95
2023-02-11T04:22:12.789Z,19.80
2023-02-11T04:24:41.269Z,21.55
2023-02-11T04:27:08.185Z,20.35
2023-02-11T04:29:34.943Z,20.05
2023-02-11T04:32:03.749Z,21.77
2023-02-11T04:34:30.793Z,20.42
2023-02-11T04:36:57.657Z,20.63
2023-02-11T04:39:24.373Z,21.10
2023-02-11T04:41:54.893Z,19.77
2023-02-11T04:44:22.607Z,20.85
2023-02-11T04:46:49.193Z,21.27
2023-02-11T04:49:18.231Z,19.67
2023-02-11T04:51:48.229Z,20.80
2023-02-11T04:54:18.703Z,21.52
2023-02-11T04:56:46.371Z,22.17
2023-02-11T04:59:13.622Z,22.48
2023-02-11T05:01:41.254Z,24.27
2023-02-11T05:04:07.969Z,22.05
2023-02-11T05:06:34.770Z,22.45
2023-02-11T05:09:01.683Z,23.58
2023-02-11T05:11:28.544Z,22.85
2023-02-11T05:13:57.117Z,23.42
2023-02-11T05:16:25.553Z,23.20
2023-02-11T05:18:53.788Z,23.13
2023-02-11T05:21:20.771Z,22.60
2023-02-11T05:23:48.016Z,22.90
2023-02-11T05:26:15.267Z,22.52
2023-02-11T05:28:42.807Z,23.13
2023-02-11T05:31:09.926Z,21.98
2023-02-11T05:33:36.871Z,23.20
2023-02-11T05:36:08.542Z,23.52
2023-02-11T05:38:39.364Z,24.38
2023-02-11T05:41:07.433Z,21.30
2023-02-11T05:43:35.421Z,23.10
2023-02-11T05:46:03.729Z,25.45
2023-02-11T05:48:31.063Z,23.25
2023-02-11T05:50:58.156Z,23.52
2023-02-11T05:53:24.941Z,23.92
2023-02-11T05:55:51.962Z,24.90
2023-02-11T05:58:18.758Z,22.77
2023-02-11T06:00:47.194Z,23.83
2023-02-11T06:03:13.993Z,24.13
2023-02-11T06:05:42.372Z,24.75
2023-02-11T06:08:09.108Z,24.58
2023-02-11T06:10:36.836Z,23.67
2023-02-11T06:13:06.377Z,25.58
2023-02-11T06:15:33.406Z,23.90
2023-02-11T06:18:00.237Z,26.38
2023-02-11T06:20:27.322Z,23.83
2023-02-11T06:22:54.367Z,24.98
2023-02-11T06:25:21.284Z,23.67
2023-02-11T06:27:49.678Z,25.38
2023-02-11T06:30:17.111Z,25.27
2023-02-11T06:32:45.685Z,26.15
2023-02-11T06:35:14.529Z,26.10
2023-02-11T06:37:42.539Z,26.83
2023-02-11T06:40:11.122Z,25.60
2023-02-11T06:42:39.519Z,27.20
2023-02-11T06:45:11.032Z,27.08
2023-02-11T06:47:38.198Z,26.48
2023-02-11T06:50:08.826Z,27.48
2023-02-11T06:52:38.170Z,26.65
2023-02-11T06:55:06.373Z,26.02
2023-02-11T06:57:35.027Z,27.60
2023-02-11T07:00:02.047Z,26.17
2023-02-11T07:02:30.167Z,28.20
2023-02-11T07:04:58.224Z,27.42
2023-02-11T07:07:25.641Z,26.25
2023-02-11T07:09:55.376Z,28.20
2023-02-11T07:12:24.695Z,26.38
2023-02-11T07:14:52.403Z,27.75
2023-02-11T07:17:19.339Z,29.48
2023-02-11T07:19:51.223Z,26.95
2023-02-11T07:22:18.657Z,25.92
2023-02-11T07:24:45.617Z,26.52
2023-02-11T07:27:13.134Z,27.15
2023-02-11T07:29:40.233Z,27.08
2023-02-11T07:32:08.681Z,27.42
2023-02-11T07:34:35.806Z,26.58
2023-02-11T07:37:07.429Z,25.63
2023-02-11T07:42:15.770Z,25.50
2023-02-11T07:44:42.738Z,24.83
2023-02-11T07:47:09.688Z,28.13
2023-02-11T07:49:38.070Z,24.15
2023-02-11T07:52:10.396Z,25.42
2023-02-11T07:54:37.085Z,24.63
2023-02-11T07:57:03.948Z,26.40
2023-02-11T07:59:30.907Z,24.90
2023-02-11T08:01:57.513Z,24.67
2023-02-11T08:04:24.168Z,22.30
2023-02-11T08:06:53.128Z,23.85
2023-02-11T08:09:20.195Z,24.48
2023-02-11T08:11:48.626Z,23.83
2023-02-11T08:14:15.615Z,26.20
2023-02-11T08:16:49.812Z,26.20
2023-02-11T08:19:21.216Z,24.25
2023-02-11T08:21:48.236Z,26.90
2023-02-11T08:24:14.860Z,24.17
2023-02-11T08:26:42.434Z,26.00
2023-02-11T08:29:12.050Z,25.48
2023-02-11T08:31:42.143Z,25.30
2023-02-11T08:34:11.077Z,26.45
2023-02-11T08:42:05.602Z,24.35
2023-02-11T08:44:33.442Z,25.23
2023-02-11T08:47:04.093Z,22.73
2023-02-11T08:49:34.110Z,25.88
2023-02-11T08:52:04.642Z,25.25
2023-02-11T08:54:32.204Z,25.80
2023-02-11T08:56:58.906Z,26.42
2023-02-11T08:59:25.764Z,25.80
2023-02-11T09:01:53.814Z,24.55
2023-02-11T09:04:22.788Z,23.20
2023-02-11T09:06:50.341Z,25.75
2023-02-11T09:09:17.683Z,25.23
2023-02-11T09:11:44.960Z,24.25
2023-02-11T09:14:21.721Z,24.88
2023-02-11T09:16:49.750Z,22.15
2023-02-11T09:19:17.735Z,23.98
2023-02-11T09:21:45.725Z,22.33
2023-02-11T09:24:12.615Z,24.80
2023-02-11T09:26:43.316Z,25.25
2023-02-11T09:29:11.169Z,23.67
2023-02-11T09:31:37.994Z,21.30
2023-02-11T09:34:06.339Z,24.48
2023-02-11T09:36:40.460Z,23.92
2023-02-11T09:39:12.060Z,22.77
2023-02-11T09:42:06.908Z,22.85
2023-02-11T09:44:35.796Z,22.92
2023-02-11T09:47:20.323Z,22.02
2023-02-11T09:49:53.858Z,21.45
2023-02-11T09:52:33.955Z,24.17
2023-02-11T09:55:05.066Z,21.52
2023-02-11T09:57:37.302Z,22.48
2023-02-11T10:00:28.686Z,23.98
2023-02-11T10:03:28.129Z,22.40
2023-02-11T10:06:15.717Z,20.85
2023-02-11T10:09:01.488Z,22.17
2023-02-11T10:11:46.492Z,18.50
2023-02-11T10:14:16.166Z,21.08
2023-02-11T10:17:11.696Z,21.55
2023-02-11T10:22:39.171Z,20.90
2023-02-11T10:28:26.253Z,22.08
2023-02-11T10:31:07.495Z,20.10
2023-02-11T10:33:49.800Z,21.20
2023-02-11T10:36:21.169Z,21.35
2023-02-11T10:38:48.225Z,19.38
2023-02-11T10:41:23.177Z,20.67
2023-02-11T10:43:54.460Z,20.80
2023-02-11T10:46:37.753Z,19.67
2023-02-11T10:49:15.574Z,22.48
2023-02-11T10:51:42.993Z,21.75
2023-02-11T10:54:21.395Z,21.33
2023-02-11T10:56:54.024Z,21.17
2023-02-11T10:59:40.760Z,20.23
2023-02-11T11:02:25.528Z,21.63
2023-02-11T11:05:01.361Z,20.00
2023-02-11T11:07:30.953Z,18.55
2023-02-11T11:10:02.846Z,19.63
2023-02-11T11:12:49.161Z,20.67
2023-02-11T11:15:35.004Z,18.98
2023-02-11T11:18:22.527Z,20.85
2023-02-11T11:21:13.552Z,17.40
2023-02-11T11:23:41.681Z,18.70
2023-02-11T11:26:12.471Z,18.85
2023-02-11T11:29:02.537Z,18.73
2023-02-11T11:31:36.404Z,18.67
2023-02-11T11:34:21.723Z,17.23
2023-02-11T11:36:49.579Z,18.00
2023-02-11T11:39:25.351Z,16.00
2023-02-11T11:41:57.725Z,16.85
2023-02-11T11:44:59.891Z,16.83
2023-02-11T11:47:43.899Z,16.88
2023-02-11T11:50:57.836Z,16.15
2023-02-11T11:53:44.966Z,15.30
2023-02-11T11:56:23.339Z,12.82
2023-02-11T11:58:51.027Z,15.18
2023-02-11T12:01:45.684Z,15.75
2023-02-11T12:04:46.272Z,14.07
2023-02-11T12:07:36.905Z,13.60
2023-02-11T12:10:37.715Z,14.60
2023-02-11T12:13:18.617Z,13.48
2023-02-11T12:16:13.818Z,13.32
2023-02-11T12:19:18.781Z,14.00
2023-02-11T12:22:07.070Z,13.30
2023-02-11T12:24:57.531Z,13.35
2023-02-11T12:27:51.757Z,13.32
2023-02-11T12:30:37.310Z,13.95
2023-02-11T12:33:23.149Z,13.05
2023-02-11T12:36:15.066Z,12.68
2023-02-11T12:39:17.764Z,12.65
2023-02-11T12:42:38.335Z,12.52
2023-02-11T12:45:22.625Z,14.38
2023-02-11T12:50:43.349Z,10.90
2023-02-11T12:53:39.572Z,11.82
2023-02-11T12:57:03.508Z,12.02
2023-02-11T12:59:44.708Z,14.10
2023-02-11T13:02:35.274Z,13.90
2023-02-11T13:07:43.293Z,11.60
2023-02-11T13:10:27.371Z,13.18
2023-02-11T13:13:15.036Z,13.25
2023-02-11T13:15:44.919Z,11.90
2023-02-11T13:18:49.722Z,12.65
2023-02-11T13:21:17.676Z,13.30
2023-02-11T13:23:49.298Z,11.23
2023-02-11T13:26:42.598Z,13.88
2023-02-11T13:29:23.064Z,12.55
2023-02-11T13:32:12.119Z,10.80
2023-02-11T13:34:42.198Z,12.88
2023-02-11T13:37:27.950Z,13.18
2023-02-11T13:40:04.994Z,10.65
2023-02-11T13:42:44.925Z,13.35
2023-02-11T13:45:30.041Z,11.70
2023-02-11T13:48:02.819Z,10.63
2023-02-11T13:50:32.730Z,14.63
2023-02-11T13:53:03.729Z,12.18
2023-02-11T13:55:30.963Z,14.23
2023-02-11T13:58:08.862Z,12.07
2023-02-11T14:00:35.513Z,12.75
2023-02-11T14:03:42.926Z,11.57
2023-02-11T14:06:27.920Z,12.30
2023-02-11T14:09:17.837Z,12.20
2023-02-11T14:11:52.203Z,13.02
2023-02-11T14:14:27.189Z,11.73
2023-02-11T14:17:02.019Z,12.23
2023-02-11T14:19:34.759Z,11.82
2023-02-11T14:22:13.570Z,11.57
2023-02-11T14:24:53.434Z,11.32
2023-02-11T14:27:36.437Z,11.90
2023-02-11T14:30:12.595Z,11.60
2023-02-11T14:32:49.249Z,11.95
2023-02-11T14:35:34.445Z,11.32
2023-02-11T14:38:09.335Z,10.93
2023-02-11T14:40:59.122Z,11.77
2023-02-11T14:43:33.439Z,10.93
2023-02-11T14:46:02.700Z,12.80
2023-02-11T14:48:38.486Z,10.88
2023-02-11T14:51:13.784Z,11.38
2023-02-11T14:53:45.518Z,10.55
2023-02-11T14:58:53.564Z,10.13
2023-02-11T15:01:28.703Z,10.88
2023-02-11T15:03:56.729Z,10.55
2023-02-11T15:06:28.386Z,7.88
2023-02-11T15:09:04.344Z,11.18
2023-02-11T15:11:43.146Z,11.30
2023-02-11T15:14:26.610Z,11.20
2023-02-11T15:16:57.162Z,10.48
2023-02-11T15:19:32.360Z,11.70
2023-02-11T15:22:01.355Z,10.40
2023-02-11T15:24:33.744Z,10.77
2023-02-11T15:27:03.294Z,9.07
2023-02-11T15:29:45.762Z,9.82
2023-02-11T15:32:22.233Z,10.52
2023-02-11T15:34:51.258Z,10.57
2023-02-11T15:37:30.083Z,12.85
2023-02-11T15:40:16.793Z,10.43
2023-02-11T15:43:11.325Z,11.45
2023-02-11T15:45:42.891Z,10.95
2023-02-11T15:48:21.916Z,9.90
2023-02-11T15:50:58.689Z,11.07
2023-02-11T15:53:28.108Z,11.27
2023-02-11T15:56:16.228Z,10.02
2023-02-11T15:58:45.660Z,10.15
2023-02-11T16:01:13.289Z,10.13
2023-02-11T16:03:42.654Z,9.88
2023-02-11T16:06:23.040Z,10.65
2023-02-11T16:09:11.025Z,9.30
2023-02-11T16:11:54.958Z,9.38
2023-02-11T16:14:30.381Z,8.40
2023-02-11T16:17:07.837Z,8.23
2023-02-11T16:19:35.648Z,8.65
2023-02-11T16:22:12.210Z,8.95
2023-02-11T16:24:39.795Z,8.90
2023-02-11T16:27:18.295Z,8.18
2023-02-11T16:29:48.696Z,7.68
2023-02-11T16:32:26.432Z,7.28
2023-02-11T16:34:58.117Z,7.63
2023-02-11T16:37:25.602Z,8.02
2023-02-11T16:39:56.532Z,7.82
2023-02-11T16:42:25.134Z,8.13
2023-02-11T16:44:51.733Z,8.13
2023-02-11T16:47:29.020Z,7.30
2023-02-11T16:49:56.360Z,7.75
2023-02-11T16:52:23.427Z,7.40
2023-02-11T16:54:50.541Z,7.82
2023-02-11T16:57:22.686Z,7.97
2023-02-11T16:59:49.562Z,8.55
2023-02-11T17:02:28.431Z,7.68
2023-02-11T17:04:59.090Z,7.88
2023-02-11T17:07:28.787Z,7.75
2023-02-11T17:09:56.313Z,7.28
2023-02-11T17:12:25.539Z,7.57
2023-02-11T17:14:52.630Z,7.43
2023-02-11T17:17:19.253Z,8.07
2023-02-11T17:19:47.954Z,7.13
2023-02-11T17:22:16.376Z,7.35
2023-02-11T17:24:42.938Z,7.22
2023-02-11T17:27:11.496Z,6.78
2023-02-11T17:29:38.049Z,6.88
2023-02-11T17:32:06.244Z,7.28
2023-02-11T17:34:33.237Z,8.20
2023-02-11T17:37:00.471Z,9.32
2023-02-11T17:39:30.238Z,7.10
2023-02-11T17:41:56.789Z,7.53
2023-02-11T17:44:23.848Z,8.90
2023-02-11T17:46:50.408Z,8.70
2023-02-11T17:49:17.118Z,7.57
2023-02-11T17:51:43.864Z,8.00
2023-02-11T17:54:15.450Z,7.68
2023-02-11T17:56:42.785Z,8.02
2023-02-11T17:59:13.431Z,7.97
2023-02-11T18:01:41.296Z,7.43
2023-02-11T18:04:10.988Z,7.72
2023-02-11T18:06:38.311Z,7.57
2023-02-11T18:09:05.191Z,7.60
2023-02-11T18:11:36.308Z,9.07
2023-02-11T18:14:04.776Z,6.82
2023-02-11T18:16:31.911Z,8.23
2023-02-11T18:19:00.270Z,11.00
2023-02-11T18:21:28.617Z,8.05
2023-02-11T18:23:57.115Z,9.57
2023-02-11T18:26:26.250Z,9.07
2023-02-11T18:28:52.919Z,11.15
2023-02-11T18:31:20.326Z,11.23
2023-02-11T18:33:48.052Z,12.88
2023-02-11T18:36:16.259Z,10.60
2023-02-11T18:38:44.645Z,12.93
2023-02-11T18:41:12.342Z,12.88
2023-02-11T18:43:40.107Z,8.02
2023-02-11T18:46:09.373Z,12.32
2023-02-11T18:48:36.310Z,13.60
2023-02-11T18:51:14.909Z,12.73
2023-02-11T18:53:41.904Z,7.40
2023-02-11T18:56:13.362Z,14.23
2023-02-11T18:58:40.297Z,7.03
2023-02-11T19:01:15.836Z,7.78
2023-02-11T19:03:43.438Z,9.73
2023-02-11T19:06:18.304Z,7.30
2023-02-11T19:08:45.744Z,7.80
2023-02-11T19:11:13.256Z,6.65
2023-02-11T19:13:40.091Z,7.28
2023-02-11T19:16:11.208Z,7.80
2023-02-11T19:18:39.117Z,8.43
2023-02-11T19:21:10.404Z,8.85
2023-02-11T19:23:37.559Z,7.97
2023-02-11T19:26:06.681Z,7.80
2023-02-11T19:28:37.072Z,8.35
2023-02-11T19:31:09.927Z,8.82
2023-02-11T19:33:37.028Z,8.32
2023-02-11T19:36:07.828Z,9.38
2023-02-11T19:38:37.329Z,9.35
2023-02-11T19:41:06.675Z,8.88
2023-02-11T19:43:33.870Z,9.30
2023-02-11T19:46:07.261Z,8.73
2023-02-11T19:48:34.768Z,9.13
2023-02-11T19:51:13.179Z,9.05
2023-02-11T19:53:39.955Z,9.30
2023-02-11T19:56:10.728Z,9.27
2023-02-11T19:58:38.923Z,10.30
2023-02-11T20:01:13.558Z,8.40
2023-02-11T20:03:42.510Z,8.68
2023-02-11T20:06:15.221Z,9.10
2023-02-11T20:08:42.158Z,10.65
2023-02-11T20:11:21.137Z,11.18
2023-02-11T20:13:53.221Z,9.73
2023-02-11T20:16:36.817Z,9.38
2023-02-11T20:19:16.903Z,9.00
2023-02-11T20:21:47.980Z,9.93
2023-02-11T20:24:16.267Z,9.70
2023-02-11T20:26:42.937Z,11.00
2023-02-11T20:29:10.127Z,10.38
2023-02-11T20:31:39.876Z,8.38
2023-02-11T20:34:06.879Z,8.45
2023-02-11T20:36:36.112Z,9.52
2023-02-11T20:39:06.497Z,8.95
2023-02-11T20:41:35.722Z,9.02
2023-02-11T20:44:07.154Z,9.15
2023-02-11T20:46:35.215Z,8.90
2023-02-11T20:49:03.970Z,9.63
2023-02-11T20:51:35.499Z,8.70
2023-02-11T20:54:02.332Z,8.98
2023-02-11T20:56:35.700Z,7.57
2023-02-11T20:59:06.105Z,7.65
2023-02-11T21:01:35.672Z,6.80
2023-02-11T21:04:07.005Z,8.60
2023-02-11T21:06:40.960Z,6.63
2023-02-11T21:09:13.828Z,6.40
2023-02-11T21:11:45.659Z,6.50
2023-02-11T21:16:42.635Z,5.97
2023-02-11T21:19:11.738Z,6.90
2023-02-11T21:21:39.547Z,8.45
2023-02-11T21:24:10.214Z,7.22
2023-02-11T21:26:37.667Z,7.18
2023-02-11T21:29:05.477Z,7.28
2023-02-11T21:31:36.304Z,7.40
2023-02-11T21:34:03.475Z,7.40
2023-02-11T21:36:30.460Z,6.60
2023-02-11T21:38:57.515Z,6.80
2023-02-11T21:41:27.330Z,6.15
2023-02-11T21:43:57.621Z,6.15
2023-02-11T21:46:25.641Z,6.38
2023-02-11T21:48:52.607Z,6.32
2023-02-11T21:51:24.910Z,5.75
2023-02-11T21:54:01.426Z,5.93
2023-02-11T21:56:30.830Z,5.70
2023-02-11T21:58:59.417Z,5.88
2023-02-11T22:01:29.254Z,6.40
2023-02-11T22:04:00.019Z,6.38
2023-02-11T22:06:31.184Z,6.95
2023-02-11T22:08:58.627Z,8.30
2023-02-11T22:11:25.560Z,6.95
2023-02-11T22:13:58.611Z,8.55
2023-02-11T22:16:26.709Z,9.32
2023-02-11T22:18:53.690Z,8.93
2023-02-11T22:21:22.401Z,7.88
2023-02-11T22:23:50.778Z,7.22
2023-02-11T22:26:23.220Z,9.23
2023-02-11T22:28:58.705Z,8.38
2023-02-11T22:31:37.542Z,7.32
2023-02-11T22:34:08.975Z,6.97
2023-02-11T22:36:39.365Z,7.35
2023-02-11T22:39:13.047Z,7.88
2023-02-11T22:41:49.440Z,7.88
2023-02-11T22:44:17.240Z,7.10
2023-02-11T22:46:44.223Z,6.60
2023-02-11T22:49:13.924Z,6.63
2023-02-11T22:51:41.505Z,6.80
2023-02-11T22:54:15.351Z,7.03
2023-02-11T22:56:42.916Z,7.32
2023-02-11T22:59:14.665Z,6.63
2023-02-11T23:04:13.826Z,6.18
2023-02-11T23:06:40.513Z,7.13
2023-02-11T23:09:09.797Z,6.47
2023-02-11T23:11:38.103Z,6.55
2023-02-11T23:14:05.742Z,6.97
2023-02-11T23:16:34.206Z,6.53
2023-02-11T23:19:06.451Z,6.35
2023-02-11T23:21:35.412Z,6.13
2023-02-11T23:24:06.133Z,6.28
2023-02-11T23:26:34.799Z,6.82
2023-02-11T23:29:01.757Z,7.18
2023-02-11T23:31:34.198Z,5.70
2023-02-11T23:34:02.256Z,6.93
2023-02-11T23:36:29.526Z,6.75
2023-02-11T23:38:56.714Z,6.22
2023-02-11T23:41:23.913Z,7.25
2023-02-11T23:43:54.383Z,5.78
2023-02-11T23:46:25.357Z,7.13
2023-02-11T23:48:52.947Z,6.90
2023-02-11T23:51:20.251Z,7.07
2023-02-11T23:53:49.245Z,7.18
2023-02-11T23:56:27.049Z,7.38
2023-02-11T23:58:57.152Z,7.30
